Vn Rebel _ — ILBR — position and weather

sailwx.info

Track history (hours):
 
Tides and Currents Weather Stations Pressure Air Temp Water Temp Dewpoint Dewpoint Depression Visibility Wind Speed Wind Dir Waves Ship Positions

Vn Rebel _

Last reported at 2015-Jan-28 15:31 UTC. Time now 2015-Jan-28 18:16 UTC.
Position N 43°05' E 006°28'.

Length 45 m; draft 2.4 m.

MMSI: 247010300.

Date/timePositionNaut miles runAvg speedWind from/ knotsBaromVisibWave heightAir tempDewpointWater temp
2015-Jan-28 15:31N 43°05' E 006°28'7 7.5
2015-Jan-28 14:33N 43°05' E 006°38'9 8.6
2015-Jan-28 13:33N 43°01' E 006°48'4 3.6
2015-Jan-28 12:33N 42°58' E 006°49'2 2.4
2015-Jan-28 11:33N 42°58' E 006°45'4 4.1
2015-Jan-28 10:33N 42°59' E 006°40'7 6.2
2015-Jan-28 09:30N 42°59' E 006°31'25 8.4
2015-Jan-28 06:31N 43°05' E 005°58'3 3.2
2015-Jan-28 05:33N 43°07' E 005°55'  
2015-Jan-23 07:25N 43°07' E 005°55'0 0.0
2015-Jan-23 06:33N 43°07' E 005°55'0 0.0
2015-Jan-23 05:33N 43°07' E 005°55'0 0.0
2015-Jan-23 04:33N 43°07' E 005°55'0 0.0
2015-Jan-23 03:33N 43°07' E 005°55'0 0.0
2015-Jan-23 02:33N 43°07' E 005°55'0 0.0
2015-Jan-23 01:33N 43°07' E 005°55'0 0.0
2015-Jan-23 00:33N 43°07' E 005°55'0 0.0
2015-Jan-22 23:33N 43°07' E 005°55'0 0.1
2015-Jan-22 22:33N 43°07' E 005°55'3 0.1
2015-Jan-21 23:33N 43°05' E 005°58'3 4.1
2015-Jan-21 22:50N 43°07' E 005°55'0 0.0
2015-Jan-21 22:46N 43°07' E 005°55'  
Track history (hours):
 
Tides and Currents Weather Stations Pressure Air Temp Water Temp Dewpoint Dewpoint Depression Visibility Wind Speed Wind Dir Waves Ship Positions

Vn Rebel _

Last reported at 2015-Jan-28 15:31 UTC. Time now 2015-Jan-28 18:16 UTC.
Position N 43°05' E 006°28'.

Length 45 m; draft 2.4 m.

MMSI: 247010300.

Date/timePositionNaut miles runAvg speedWind from/ knotsBaromVisibWave heightAir tempDewpointWater temp
2015-Jan-28 15:31N 43°05' E 006°28'7 7.5
2015-Jan-28 14:33N 43°05' E 006°38'9 8.6
2015-Jan-28 13:33N 43°01' E 006°48'4 3.6
2015-Jan-28 12:33N 42°58' E 006°49'2 2.4
2015-Jan-28 11:33N 42°58' E 006°45'4 4.1
2015-Jan-28 10:33N 42°59' E 006°40'7 6.2
2015-Jan-28 09:30N 42°59' E 006°31'25 8.4
2015-Jan-28 06:31N 43°05' E 005°58'3 3.2
2015-Jan-28 05:33N 43°07' E 005°55'  
2015-Jan-23 07:25N 43°07' E 005°55'0 0.0
2015-Jan-23 06:33N 43°07' E 005°55'0 0.0
2015-Jan-23 05:33N 43°07' E 005°55'0 0.0
2015-Jan-23 04:33N 43°07' E 005°55'0 0.0
2015-Jan-23 03:33N 43°07' E 005°55'0 0.0
2015-Jan-23 02:33N 43°07' E 005°55'0 0.0
2015-Jan-23 01:33N 43°07' E 005°55'0 0.0
2015-Jan-23 00:33N 43°07' E 005°55'0 0.0
2015-Jan-22 23:33N 43°07' E 005°55'0 0.1
2015-Jan-22 22:33N 43°07' E 005°55'3 0.1
2015-Jan-21 23:33N 43°05' E 005°58'3 4.1
2015-Jan-21 22:50N 43°07' E 005°55'0 0.0
2015-Jan-21 22:46N 43°07' E 005°55'  

Dump ship's entire track history